createdAt,value
2019-02-10T00:05:19.117Z,6.41
2019-02-10T00:11:23.658Z,6.49
2019-02-10T00:17:28.287Z,6.45
2019-02-10T00:23:32.837Z,6.40
2019-02-10T00:29:37.377Z,6.32
2019-02-10T00:35:41.917Z,6.37
2019-02-10T00:41:46.454Z,6.40
2019-02-10T00:47:50.995Z,6.34
2019-02-10T00:53:55.541Z,6.22
2019-02-10T01:00:00.366Z,6.12
2019-02-10T01:06:04.912Z,6.08
2019-02-10T01:12:10.128Z,6.07
2019-02-10T01:18:14.678Z,5.93
2019-02-10T01:24:19.922Z,5.98
2019-02-10T01:30:24.457Z,5.98
2019-02-10T01:36:29.077Z,5.90
2019-02-10T01:42:33.614Z,5.84
2019-02-10T01:48:38.246Z,5.69
2019-02-10T01:54:42.817Z,5.68
2019-02-10T02:00:47.440Z,5.55
2019-02-10T02:06:57.643Z,5.67
2019-02-10T02:12:58.313Z,5.55
2019-02-10T02:19:02.889Z,5.50
2019-02-10T02:25:10.250Z,5.49
2019-02-10T02:31:14.792Z,5.25
2019-02-10T02:37:19.393Z,5.21
2019-02-10T02:43:23.936Z,5.26
2019-02-10T02:49:28.469Z,5.50
2019-02-10T02:55:33.014Z,5.49
2019-02-10T03:01:37.907Z,5.66
2019-02-10T03:07:42.450Z,5.87
2019-02-10T03:13:47.711Z,5.93
2019-02-10T03:19:52.321Z,5.86
2019-02-10T03:25:56.878Z,5.99
2019-02-10T03:32:01.448Z,5.80
2019-02-10T03:38:06.030Z,5.76
2019-02-10T03:44:10.638Z,5.89
2019-02-10T03:50:15.285Z,5.96
2019-02-10T03:56:19.894Z,5.97
2019-02-10T04:02:24.527Z,5.91
2019-02-10T04:08:29.079Z,5.98
2019-02-10T04:14:33.653Z,6.02
2019-02-10T04:20:38.197Z,6.01
2019-02-10T04:26:42.757Z,6.01
2019-02-10T04:32:47.310Z,6.24
2019-02-10T04:38:51.867Z,6.20
2019-02-10T04:44:57.446Z,6.34
2019-02-10T04:51:01.988Z,6.17
2019-02-10T04:57:07.176Z,6.14
2019-02-10T05:03:11.727Z,6.01
2019-02-10T05:09:16.934Z,6.28
2019-02-10T05:15:21.477Z,6.09
2019-02-10T05:21:26.094Z,6.18
2019-02-10T05:27:30.695Z,6.22
2019-02-10T05:33:35.261Z,6.26
2019-02-10T05:39:39.823Z,6.32
2019-02-10T05:45:44.370Z,6.46
2019-02-10T05:51:48.903Z,6.28
2019-02-10T05:57:55.937Z,6.32
2019-02-10T06:04:00.502Z,6.39
2019-02-10T06:10:06.781Z,6.66
2019-02-10T06:16:11.401Z,6.43
2019-02-10T06:22:16.036Z,6.25
2019-02-10T06:28:20.580Z,6.43
2019-02-10T06:34:25.128Z,6.37
2019-02-10T06:40:29.684Z,6.39
2019-02-10T06:46:34.284Z,6.33
2019-02-10T06:52:38.896Z,6.27
2019-02-10T06:58:43.448Z,6.27
2019-02-10T07:04:48.003Z,6.24
2019-02-10T07:10:52.530Z,6.14
2019-02-10T07:17:16.682Z,6.23
2019-02-10T07:23:48.557Z,6.29
2019-02-10T07:30:09.618Z,6.20
2019-02-10T07:36:24.533Z,6.22
2019-02-10T07:42:55.878Z,6.24
2019-02-10T07:49:29.916Z,6.27
2019-02-10T07:55:44.852Z,6.28
2019-02-10T08:02:20.987Z,6.29
2019-02-10T08:08:52.439Z,6.38
2019-02-10T08:15:13.431Z,6.35
2019-02-10T08:21:34.496Z,6.49
2019-02-10T08:28:01.910Z,6.53
2019-02-10T08:34:19.837Z,6.63
2019-02-10T08:40:45.771Z,6.80
2019-02-10T08:46:58.009Z,6.74
2019-02-10T08:53:13.193Z,7.06
2019-02-10T08:59:17.890Z,6.99
2019-02-10T09:05:22.471Z,7.14
2019-02-10T09:11:26.984Z,7.22
2019-02-10T09:17:31.546Z,7.29
2019-02-10T09:23:36.104Z,7.53
2019-02-10T09:35:50.719Z,7.78
2019-02-10T09:41:55.343Z,7.84
2019-02-10T09:47:59.884Z,7.86
2019-02-10T09:54:04.443Z,8.02
2019-02-10T10:00:13.272Z,8.01
2019-02-10T10:06:17.802Z,8.07
2019-02-10T10:12:22.406Z,7.99
2019-02-10T10:18:26.955Z,8.11
2019-02-10T10:24:31.487Z,8.39
2019-02-10T10:30:36.191Z,8.45
2019-02-10T10:36:40.807Z,8.74
2019-02-10T10:42:45.391Z,8.66
2019-02-10T10:48:49.956Z,8.84
2019-02-10T10:54:54.511Z,8.92
2019-02-10T11:01:01.830Z,8.95
2019-02-10T11:07:06.493Z,9.01
2019-02-10T11:13:11.144Z,9.20
2019-02-10T11:19:15.707Z,9.22
2019-02-10T11:25:20.301Z,9.16
2019-02-10T11:31:24.865Z,9.18
2019-02-10T11:37:31.086Z,9.12
2019-02-10T11:43:35.954Z,9.12
2019-02-10T11:49:40.815Z,9.19
2019-02-10T11:55:45.436Z,9.11
2019-02-10T12:08:00.059Z,8.88
2019-02-10T12:14:04.678Z,8.81
2019-02-10T12:20:14.295Z,8.77
2019-02-10T12:26:20.313Z,8.79
2019-02-10T12:32:24.846Z,8.78
2019-02-10T12:38:29.393Z,8.78
2019-02-10T12:44:33.937Z,8.92
2019-02-10T12:50:38.487Z,8.94
2019-02-10T12:56:43.050Z,9.03
2019-02-10T13:02:47.696Z,9.08
2019-02-10T13:08:52.241Z,9.24
2019-02-10T13:14:56.790Z,9.22
2019-02-10T13:21:01.331Z,9.20
2019-02-10T13:27:05.950Z,9.34
2019-02-10T13:33:10.565Z,9.28
2019-02-10T13:39:15.429Z,9.47
2019-02-10T13:45:19.958Z,9.57
2019-02-10T13:51:24.516Z,9.47
2019-02-10T13:57:29.056Z,9.50
2019-02-10T14:03:33.609Z,9.47
2019-02-10T14:09:38.153Z,9.54
2019-02-10T14:15:42.708Z,9.68
2019-02-10T14:21:47.257Z,9.68
2019-02-10T14:27:51.806Z,9.62
2019-02-10T14:33:56.334Z,9.65
2019-02-10T14:40:00.890Z,9.70
2019-02-10T14:46:05.496Z,9.60
2019-02-10T14:52:10.037Z,9.76
2019-02-10T14:58:14.584Z,9.80
2019-02-10T15:04:19.201Z,9.78
2019-02-10T15:10:24.636Z,9.82
2019-02-10T15:16:29.545Z,9.83
2019-02-10T15:22:34.918Z,9.82
2019-02-10T15:28:39.524Z,9.48
2019-02-10T15:34:44.070Z,9.08
2019-02-10T15:40:52.566Z,8.77
2019-02-10T15:46:57.109Z,8.71
2019-02-10T15:53:01.657Z,8.47
2019-02-10T15:59:06.269Z,8.61
2019-02-10T16:05:10.977Z,8.53
2019-02-10T16:11:15.516Z,8.67
2019-02-10T16:17:20.084Z,8.51
2019-02-10T16:23:27.137Z,8.53
2019-02-10T16:29:32.015Z,8.54
2019-02-10T16:35:36.873Z,8.50
2019-02-10T16:41:41.496Z,8.49
2019-02-10T16:47:46.136Z,8.37
2019-02-10T16:53:50.686Z,8.37
2019-02-10T16:59:55.226Z,8.37
2019-02-10T17:05:59.778Z,8.27
2019-02-10T17:12:04.394Z,8.29
2019-02-10T17:18:08.935Z,8.32
2019-02-10T17:24:13.476Z,8.33
2019-02-10T17:30:20.749Z,8.32
2019-02-10T17:36:25.638Z,8.35
2019-02-10T17:42:30.172Z,8.45
2019-02-10T17:48:35.308Z,8.15
2019-02-10T17:54:39.855Z,8.24
2019-02-10T18:00:46.031Z,8.30
2019-02-10T18:06:53.446Z,8.39
2019-02-10T18:12:57.988Z,8.33
2019-02-10T18:19:12.961Z,8.13
2019-02-10T18:25:24.799Z,7.95
2019-02-10T18:31:33.400Z,7.86
2019-02-10T18:37:51.134Z,7.70
2019-02-10T18:44:12.953Z,7.65
2019-02-10T18:50:22.981Z,7.59
2019-02-10T18:56:29.155Z,7.46
2019-02-10T19:02:52.368Z,7.28
2019-02-10T19:09:03.743Z,7.16
2019-02-10T19:15:29.371Z,7.13
2019-02-10T19:21:35.558Z,6.92
2019-02-10T19:27:48.637Z,6.91
2019-02-10T19:34:00.832Z,6.93
2019-02-10T19:40:27.536Z,6.88
2019-02-10T19:46:44.914Z,6.84
2019-02-10T19:52:54.873Z,6.86
2019-02-10T19:59:10.083Z,6.84
2019-02-10T20:05:16.281Z,6.80
2019-02-10T20:11:28.114Z,6.86
2019-02-10T20:17:34.305Z,6.79
2019-02-10T20:23:44.866Z,6.74
2019-02-10T20:30:00.766Z,6.62
2019-02-10T20:36:21.914Z,6.50
2019-02-10T20:42:34.038Z,6.39
2019-02-10T20:48:38.367Z,6.23
2019-02-10T20:54:48.347Z,6.09
2019-02-10T21:00:54.540Z,5.95
2019-02-10T21:07:15.764Z,5.83
2019-02-10T21:13:21.949Z,5.45
2019-02-10T21:19:37.817Z,5.04
2019-02-10T21:25:52.865Z,4.63
2019-02-10T21:32:01.807Z,4.53
2019-02-10T21:38:23.979Z,4.46
2019-02-10T21:44:33.142Z,4.36
2019-02-10T21:50:37.694Z,4.20
2019-02-10T21:56:42.237Z,4.15
2019-02-10T22:02:48.631Z,4.03
2019-02-10T22:08:53.161Z,3.87
2019-02-10T22:14:57.716Z,3.77
2019-02-10T22:21:02.261Z,3.84
2019-02-10T22:27:06.808Z,3.63
2019-02-10T22:33:11.347Z,3.57
2019-02-10T22:39:15.883Z,3.55
2019-02-10T22:45:20.427Z,3.55
2019-02-10T22:51:27.616Z,3.48
2019-02-10T22:57:32.514Z,3.38
2019-02-10T23:03:37.200Z,3.41
2019-02-10T23:09:41.745Z,3.23
2019-02-10T23:15:46.297Z,3.25
2019-02-10T23:21:50.835Z,3.25
2019-02-10T23:27:55.379Z,3.31
2019-02-10T23:34:00.001Z,3.20
2019-02-10T23:40:05.978Z,3.21
2019-02-10T23:46:10.542Z,3.28
2019-02-10T23:52:15.243Z,3.31
2019-02-10T23:58:21.302Z,3.27
